Little Rock Air Force Base
KLRF : rendu visible

Aérodrome :











RETROUVEZ-NOUS SUR...

 
LOGIN :

S'inscrire | Disclaimer

   EN    FR    IT 

 









Légende :    VFR   VFR Marginal   IFR   IFR Intensif   IFR Très Intensif
Visi : 
Plafond : 
>= 8 km
>= 3000ft
5 à 8 km
1000 à 3000 ft
1500m à 5 km
500 à 1000 ft
800 à 1500m
200 à 500 ft
< 800m
< 200 ft
Symboles :   Orages  Brouillard  Fortes neiges  Fortes précipitations  Vent > 20 kt






- Altitude de l'aérodrome : 311 ft


KLRF - Little Rock Air Force Base

DERNIER METAR :
  • 180156Z AUTO 17004KT 10SM CLR 28/21 A2997 RMK AO2 SLP148 T02810206

METARs EXPIRÉS :
  • 180056Z AUTO 18004KT 10SM CLR 29/20 A2996 RMK AO2 SLP145 T02920203
  • 172356Z AUTO 17005KT 10SM CLR 31/21 A2994 RMK AO2 SLP138 60000 T03120207 10335 20312 57005

TAF TAF KLRF
Valide du 17 à 23h jusqu'au 19 à 05h UTC


172306Z 1723/1905 19006KT 9999 SCT040 SCT250 QNH2993INS
BECMG 1800/1801 VRB06KT 9999 SCT250 QNH2990INS
BECMG 1813/1814 20009KT 9999 FEW045 SCT250 QNH2991INS TX34/1821Z TN22/1811Z
FIR KZME / Amérique du Nord



MET'MAP, la Météo Aéronautique d'un coup d'oeil ! - Copyright ORBIFLY Décembre 2007 - Disclaimer

ORBIFLY MET'MAP TEAM :

Programmation & Développement : Alexandra Zaïnal
Sur une idée originale de : Baudouin d'Aumeries
Assistance à la programmation : Marc-Olivier Méhu
Soutien technique & logistique : Manuel Goepfert

Contact : metmap@orbifly.com




SOURCES & CREDITS :

   NOAA       Earth
Advisory